OPA Logo
 
ASOS:
At:2021.06.22 0955 UTC
Wind:220° @ 5KT
Viz: 10 mile(s)
Sky: clear
Temp: 62 F (17 C)
DewP: 50 F (10 C)
RH: 63%
Baro: 29.97 in.
ob: KBDN 220955Z AUTO 22005KT 10SM CLR 17/10 A2997 RMK AO2

ASOS: KRDM
At:2021.06.22 0856 UTC
Wind:200° @ 3KT
Viz: 10 mile(s)
Sky: clear
Temp: 68.0 F (20.0 C)
DewP: 51.1 F (10.6 C)
RH: 54%
Baro: 29.93 in.
ob: KRDM 220856Z AUTO 20003KT 10SM CLR 20/11 A2993 RMK AO2 SLP099 T02000106 55003
Apache-SSL Logo

Valid HTML 4.01!

Central Oregon OPA Chapter

Chapter Officers 2006:

President
Gary E. Miller
109 NW Wilmington Ave.
Bend OR 97701
541 382-8588
gem@rellim.com

Vice President:
Open

Secretary/Treasurer:
Don Wilfong
210 SE Cessna Dr
Bend OR 97702
541 389-1456
dwnw@bendbroadband.com


Web page by: gem@rellim.com